createdAt,value
2018-07-27T00:01:22.023Z,25.41
2018-07-27T00:03:56.438Z,25.58
2018-07-27T00:06:30.843Z,25.62
2018-07-27T00:09:08.480Z,25.52
2018-07-27T00:11:43.639Z,25.42
2018-07-27T00:14:18.080Z,25.35
2018-07-27T00:16:52.567Z,25.29
2018-07-27T00:19:27.215Z,25.31
2018-07-27T00:22:01.704Z,25.28
2018-07-27T00:24:36.107Z,25.19
2018-07-27T00:27:10.483Z,25.17
2018-07-27T00:29:45.231Z,25.19
2018-07-27T00:32:19.502Z,25.16
2018-07-27T00:34:53.908Z,25.17
2018-07-27T00:37:28.340Z,25.33
2018-07-27T00:40:02.737Z,25.43
2018-07-27T00:42:37.200Z,25.34
2018-07-27T00:45:11.651Z,25.25
2018-07-27T00:47:46.056Z,25.33
2018-07-27T00:50:20.350Z,25.35
2018-07-27T00:52:55.809Z,25.24
2018-07-27T00:55:33.215Z,25.23
2018-07-27T00:58:07.616Z,25.22
2018-07-27T01:00:41.907Z,25.25
2018-07-27T01:03:16.272Z,25.29
2018-07-27T01:05:50.899Z,25.31
2018-07-27T01:08:25.352Z,25.27
2018-07-27T01:10:59.788Z,25.21
2018-07-27T01:13:34.352Z,25.31
2018-07-27T01:16:08.999Z,25.35
2018-07-27T01:18:43.544Z,25.30
2018-07-27T01:21:17.900Z,25.21
2018-07-27T01:23:52.164Z,25.16
2018-07-27T01:26:26.539Z,25.15
2018-07-27T01:29:00.977Z,25.14
2018-07-27T01:31:35.736Z,25.11
2018-07-27T01:34:10.286Z,25.05
2018-07-27T01:36:44.652Z,25.14
2018-07-27T01:39:19.090Z,25.06
2018-07-27T01:41:53.592Z,25.07
2018-07-27T01:44:32.736Z,25.01
2018-07-27T01:47:19.055Z,24.99
2018-07-27T01:49:56.876Z,24.92
2018-07-27T01:52:31.281Z,24.98
2018-07-27T01:55:05.923Z,24.87
2018-07-27T01:57:40.465Z,24.90
2018-07-27T02:00:14.898Z,24.96
2018-07-27T02:02:49.171Z,24.89
2018-07-27T02:05:23.539Z,24.81
2018-07-27T02:07:57.752Z,24.65
2018-07-27T02:10:31.963Z,24.63
2018-07-27T02:13:06.225Z,24.65
2018-07-27T02:15:40.567Z,24.63
2018-07-27T02:18:15.012Z,24.54
2018-07-27T02:23:48.434Z,24.30
2018-07-27T02:26:22.667Z,24.14
2018-07-27T02:28:56.877Z,24.12
2018-07-27T02:31:31.236Z,23.93
2018-07-27T02:34:05.670Z,24.01
2018-07-27T02:36:39.964Z,23.94
2018-07-27T02:39:14.403Z,23.90
2018-07-27T02:41:48.788Z,23.74
2018-07-27T02:44:23.168Z,23.62
2018-07-27T02:46:57.473Z,23.59
2018-07-27T02:49:31.879Z,23.53
2018-07-27T02:52:06.220Z,23.54
2018-07-27T02:54:40.593Z,23.62
2018-07-27T02:57:15.043Z,23.70
2018-07-27T02:59:49.689Z,23.66
2018-07-27T03:02:23.887Z,23.54
2018-07-27T03:04:58.187Z,23.39
2018-07-27T03:07:32.634Z,23.23
2018-07-27T03:10:07.308Z,23.20
2018-07-27T03:12:41.617Z,23.11
2018-07-27T03:15:16.011Z,23.14
2018-07-27T03:17:50.340Z,23.11
2018-07-27T03:20:24.664Z,23.04
2018-07-27T03:22:59.123Z,23.00
2018-07-27T03:25:33.483Z,23.08
2018-07-27T03:28:07.763Z,23.11
2018-07-27T03:30:42.129Z,23.32
2018-07-27T03:33:16.330Z,23.29
2018-07-27T03:35:50.700Z,23.36
2018-07-27T03:38:25.111Z,23.31
2018-07-27T03:40:59.423Z,23.40
2018-07-27T03:43:33.794Z,23.35
2018-07-27T03:46:08.291Z,23.24
2018-07-27T03:48:42.776Z,23.23
2018-07-27T03:51:17.121Z,23.15
2018-07-27T03:53:51.391Z,23.10
2018-07-27T03:56:25.827Z,23.05
2018-07-27T03:59:00.266Z,22.96
2018-07-27T04:01:34.670Z,22.99
2018-07-27T04:04:09.070Z,23.22
2018-07-27T04:06:43.504Z,23.29
2018-07-27T04:09:17.919Z,23.29
2018-07-27T04:11:52.246Z,23.31
2018-07-27T04:14:26.608Z,23.38
2018-07-27T04:17:00.893Z,23.33
2018-07-27T04:19:35.327Z,23.43
2018-07-27T04:22:09.723Z,23.53
2018-07-27T04:24:44.082Z,23.54
2018-07-27T04:27:18.458Z,23.42
2018-07-27T04:29:52.828Z,23.44
2018-07-27T04:32:27.079Z,23.57
2018-07-27T04:35:01.515Z,23.58
2018-07-27T04:37:35.792Z,23.67
2018-07-27T04:40:10.324Z,23.63
2018-07-27T04:42:44.760Z,23.64
2018-07-27T04:45:19.260Z,23.64
2018-07-27T04:47:53.817Z,23.71
2018-07-27T04:50:28.563Z,23.60
2018-07-27T04:53:03.096Z,23.66
2018-07-27T04:55:37.564Z,23.87
2018-07-27T04:58:11.908Z,23.85
2018-07-27T05:00:47.353Z,23.86
2018-07-27T05:03:22.017Z,23.95
2018-07-27T05:05:56.701Z,24.12
2018-07-27T05:08:31.300Z,24.10
2018-07-27T05:11:06.497Z,24.24
2018-07-27T05:13:40.751Z,24.39
2018-07-27T05:16:15.245Z,24.46
2018-07-27T05:18:49.702Z,24.54
2018-07-27T05:21:24.594Z,24.59
2018-07-27T05:24:12.636Z,24.69
2018-07-27T05:26:47.132Z,24.81
2018-07-27T05:29:21.546Z,24.90
2018-07-27T05:31:56.688Z,24.98
2018-07-27T05:34:31.840Z,25.06
2018-07-27T05:37:06.996Z,25.13
2018-07-27T05:39:41.756Z,25.18
2018-07-27T05:42:16.361Z,25.29
2018-07-27T05:44:51.015Z,25.28
2018-07-27T05:47:25.632Z,25.44
2018-07-27T05:50:01.133Z,25.62
2018-07-27T05:52:35.643Z,25.76
2018-07-27T05:55:10.235Z,25.85
2018-07-27T05:57:44.813Z,25.96
2018-07-27T06:00:19.290Z,26.05
2018-07-27T06:02:53.963Z,26.19
2018-07-27T06:05:28.454Z,26.37
2018-07-27T06:08:03.133Z,26.44
2018-07-27T06:10:37.636Z,26.57
2018-07-27T06:13:12.235Z,26.75
2018-07-27T06:15:46.897Z,26.71
2018-07-27T06:18:21.425Z,26.92
2018-07-27T06:20:56.063Z,27.05
2018-07-27T06:23:30.491Z,27.18
2018-07-27T06:26:05.025Z,27.43
2018-07-27T06:28:39.473Z,28.12
2018-07-27T06:31:14.065Z,30.58
2018-07-27T06:33:48.521Z,33.69
2018-07-27T06:36:23.046Z,34.77
2018-07-27T06:38:57.501Z,36.66
2018-07-27T06:41:32.032Z,38.57
2018-07-27T06:44:06.489Z,39.09
2018-07-27T06:46:40.892Z,39.87
2018-07-27T06:49:15.320Z,39.81
2018-07-27T06:51:49.719Z,39.99
2018-07-27T06:54:30.387Z,40.57
2018-07-27T06:57:04.928Z,40.92
2018-07-27T06:59:39.272Z,40.81
2018-07-27T07:02:13.820Z,39.65
2018-07-27T07:04:51.205Z,40.01
2018-07-27T07:07:25.780Z,40.67
2018-07-27T07:10:00.266Z,42.18
2018-07-27T07:12:35.088Z,42.86
2018-07-27T07:15:10.568Z,42.56
2018-07-27T07:17:45.021Z,43.07
2018-07-27T07:20:19.574Z,42.87
2018-07-27T07:22:54.032Z,43.24
2018-07-27T07:25:28.489Z,42.84
2018-07-27T07:28:02.816Z,42.99
2018-07-27T07:30:37.678Z,44.50
2018-07-27T07:33:12.445Z,44.75
2018-07-27T07:35:46.776Z,43.92
2018-07-27T07:38:21.452Z,43.67
2018-07-27T07:40:55.966Z,43.98
2018-07-27T07:43:30.425Z,43.94
2018-07-27T07:46:04.912Z,44.25
2018-07-27T07:48:39.703Z,45.52
2018-07-27T07:51:14.480Z,45.85
2018-07-27T07:53:49.037Z,46.34
2018-07-27T07:56:23.600Z,45.15
2018-07-27T07:58:58.010Z,45.33
2018-07-27T08:01:32.929Z,46.06
2018-07-27T08:04:07.436Z,45.26
2018-07-27T08:06:41.823Z,45.10
2018-07-27T08:09:16.341Z,45.09
2018-07-27T08:11:50.716Z,46.78
2018-07-27T08:14:25.070Z,45.64
2018-07-27T08:16:59.725Z,45.06
2018-07-27T08:19:34.103Z,44.94
2018-07-27T08:22:08.516Z,45.75
2018-07-27T08:24:43.244Z,45.21
2018-07-27T08:27:17.761Z,45.54
2018-07-27T08:29:52.257Z,44.95
2018-07-27T08:32:26.727Z,45.62
2018-07-27T08:35:01.043Z,45.91
2018-07-27T08:37:35.467Z,45.27
2018-07-27T08:40:09.868Z,44.06
2018-07-27T08:42:44.390Z,45.27
2018-07-27T08:45:18.765Z,44.53
2018-07-27T08:47:53.196Z,45.21
2018-07-27T08:50:27.924Z,45.19
2018-07-27T08:53:02.492Z,45.33
2018-07-27T08:56:01.945Z,43.89
2018-07-27T08:58:59.825Z,45.04
2018-07-27T09:01:34.401Z,45.34
2018-07-27T09:04:33.554Z,44.65
2018-07-27T09:07:08.104Z,45.55
2018-07-27T09:09:42.540Z,44.11
2018-07-27T09:12:17.105Z,44.95
2018-07-27T09:14:51.817Z,44.17
2018-07-27T09:17:26.311Z,44.77
2018-07-27T09:20:00.552Z,46.06
2018-07-27T09:22:37.255Z,45.97
2018-07-27T09:25:18.672Z,45.55
2018-07-27T09:27:54.135Z,45.36
2018-07-27T09:30:40.752Z,47.37
2018-07-27T09:33:16.312Z,46.03
2018-07-27T09:35:58.757Z,46.12
2018-07-27T09:38:33.461Z,47.50
2018-07-27T09:41:07.885Z,47.61
2018-07-27T09:43:42.224Z,48.23
2018-07-27T09:46:16.651Z,46.45
2018-07-27T09:48:52.005Z,46.61
2018-07-27T09:51:33.991Z,46.84
2018-07-27T09:54:09.452Z,45.79
2018-07-27T09:56:44.007Z,45.50
2018-07-27T09:59:18.486Z,45.42
2018-07-27T10:01:52.985Z,45.62
2018-07-27T10:04:27.548Z,45.37
2018-07-27T10:07:02.074Z,45.58
2018-07-27T10:09:36.514Z,45.59
2018-07-27T10:12:11.067Z,46.02
2018-07-27T10:14:45.571Z,46.00
2018-07-27T10:17:19.888Z,46.03
2018-07-27T10:19:54.354Z,44.55
2018-07-27T10:22:28.980Z,43.98
2018-07-27T10:25:03.489Z,45.10
2018-07-27T10:27:37.972Z,45.89
2018-07-27T10:30:12.372Z,44.56
2018-07-27T10:32:47.108Z,46.49
2018-07-27T10:35:21.924Z,45.26
2018-07-27T10:37:56.365Z,46.65
2018-07-27T10:40:30.836Z,47.30
2018-07-27T10:43:05.372Z,46.63
2018-07-27T10:45:39.889Z,46.02
2018-07-27T10:48:14.286Z,44.35
2018-07-27T10:50:48.824Z,42.33
2018-07-27T10:53:40.395Z,44.06
2018-07-27T10:56:14.796Z,43.44
2018-07-27T10:58:49.412Z,44.25
2018-07-27T11:01:24.101Z,42.72
2018-07-27T11:03:58.748Z,42.93
2018-07-27T11:06:33.941Z,43.55
2018-07-27T11:09:10.073Z,44.96
2018-07-27T11:11:44.420Z,44.09
2018-07-27T11:14:35.569Z,45.24
2018-07-27T11:17:10.129Z,44.96
2018-07-27T11:19:44.608Z,45.04
2018-07-27T11:22:19.204Z,45.19
2018-07-27T11:24:53.620Z,45.50
2018-07-27T11:27:28.320Z,44.41
2018-07-27T11:30:02.915Z,45.16
2018-07-27T11:32:37.310Z,44.13
2018-07-27T11:35:11.977Z,44.83
2018-07-27T11:37:46.443Z,45.05
2018-07-27T11:40:20.752Z,43.16
2018-07-27T11:42:54.988Z,42.76
2018-07-27T11:45:29.387Z,42.03
2018-07-27T11:48:04.442Z,41.07
2018-07-27T11:50:38.712Z,41.06
2018-07-27T11:53:13.115Z,39.27
2018-07-27T11:55:47.508Z,38.47
2018-07-27T11:58:21.819Z,38.17
2018-07-27T12:00:56.106Z,36.46
2018-07-27T12:03:30.369Z,36.62
2018-07-27T12:06:04.843Z,36.72
2018-07-27T12:08:39.416Z,35.92
2018-07-27T12:11:28.508Z,35.76
2018-07-27T12:14:03.096Z,35.54
2018-07-27T12:16:37.416Z,35.52
2018-07-27T12:19:11.795Z,35.24
2018-07-27T12:21:46.302Z,35.21
2018-07-27T12:27:27.274Z,34.95
2018-07-27T12:30:01.536Z,34.81
2018-07-27T12:32:36.292Z,34.88
2018-07-27T12:35:10.932Z,34.75
2018-07-27T12:37:45.311Z,35.00
2018-07-27T12:40:19.691Z,35.16
2018-07-27T12:42:54.001Z,35.13
2018-07-27T12:45:28.427Z,35.05
2018-07-27T12:48:02.831Z,34.79
2018-07-27T12:50:37.099Z,34.41
2018-07-27T12:53:11.499Z,34.44
2018-07-27T12:55:45.722Z,34.71
2018-07-27T12:58:20.100Z,34.53
2018-07-27T13:00:54.336Z,34.36
2018-07-27T13:03:28.723Z,34.33
2018-07-27T13:06:03.081Z,34.33
2018-07-27T13:08:37.426Z,34.32
2018-07-27T13:11:11.675Z,34.49
2018-07-27T13:13:45.924Z,34.34
2018-07-27T13:16:20.291Z,34.19
2018-07-27T13:18:55.065Z,34.04
2018-07-27T13:21:29.340Z,34.25
2018-07-27T13:24:04.041Z,34.42
2018-07-27T13:26:38.441Z,34.33
2018-07-27T13:29:13.004Z,34.25
2018-07-27T13:31:55.383Z,34.21
2018-07-27T13:34:32.376Z,34.31
2018-07-27T13:37:06.684Z,34.27
2018-07-27T13:39:41.704Z,34.36
2018-07-27T13:42:17.356Z,34.53
2018-07-27T13:44:51.723Z,34.55
2018-07-27T13:47:26.148Z,34.13
2018-07-27T13:50:00.520Z,34.27
2018-07-27T13:52:34.876Z,34.51
2018-07-27T13:55:09.295Z,34.42
2018-07-27T13:57:43.908Z,34.45
2018-07-27T14:00:18.379Z,34.58
2018-07-27T14:02:52.728Z,34.69
2018-07-27T14:05:26.991Z,34.48
2018-07-27T14:08:01.404Z,34.62
2018-07-27T14:10:35.801Z,34.69
2018-07-27T14:13:10.128Z,34.79
2018-07-27T14:15:44.486Z,34.97
2018-07-27T14:18:18.882Z,35.21
2018-07-27T14:20:53.215Z,35.33
2018-07-27T14:23:27.563Z,35.39
2018-07-27T14:26:01.928Z,35.28
2018-07-27T14:28:36.351Z,35.51
2018-07-27T14:31:11.050Z,36.39
2018-07-27T14:33:45.593Z,37.14
2018-07-27T14:36:20.003Z,37.70
2018-07-27T14:38:54.380Z,38.49
2018-07-27T14:41:28.780Z,39.04
2018-07-27T14:44:03.428Z,39.49
2018-07-27T14:46:38.259Z,39.59
2018-07-27T14:49:15.157Z,40.30
2018-07-27T14:51:49.783Z,40.61
2018-07-27T14:54:24.337Z,40.17
2018-07-27T14:56:58.910Z,40.18
2018-07-27T14:59:33.236Z,41.24
2018-07-27T15:02:07.768Z,41.02
2018-07-27T15:04:42.354Z,40.94
2018-07-27T15:07:16.653Z,41.04
2018-07-27T15:09:51.188Z,40.74
2018-07-27T15:12:25.765Z,41.19
2018-07-27T15:15:00.285Z,40.26
2018-07-27T15:17:34.891Z,39.76
2018-07-27T15:20:09.401Z,40.63
2018-07-27T15:22:43.769Z,41.20
2018-07-27T15:25:18.188Z,41.15
2018-07-27T15:27:52.615Z,40.37
2018-07-27T15:30:27.377Z,39.94
2018-07-27T15:33:01.837Z,39.97
2018-07-27T15:35:36.228Z,39.99
2018-07-27T15:38:10.618Z,39.17
2018-07-27T15:40:45.058Z,37.47
2018-07-27T15:43:19.762Z,37.36
2018-07-27T15:45:55.168Z,36.75
2018-07-27T15:48:29.875Z,36.39
2018-07-27T15:51:04.344Z,36.34
2018-07-27T15:53:38.708Z,35.72
2018-07-27T15:56:13.293Z,35.71
2018-07-27T16:02:10.788Z,35.37
2018-07-27T16:04:45.353Z,35.14
2018-07-27T16:07:19.876Z,35.08
2018-07-27T16:09:54.736Z,34.97
2018-07-27T16:12:29.630Z,34.80
2018-07-27T16:18:07.133Z,34.41
2018-07-27T16:23:40.904Z,34.03
2018-07-27T16:26:15.500Z,33.72
2018-07-27T16:28:50.330Z,33.75
2018-07-27T16:31:25.154Z,33.81
2018-07-27T16:34:00.417Z,33.71
2018-07-27T16:36:35.191Z,33.59
2018-07-27T16:39:13.077Z,33.52
2018-07-27T16:41:47.712Z,33.63
2018-07-27T16:44:22.649Z,33.65
2018-07-27T16:46:57.164Z,33.54
2018-07-27T16:49:31.629Z,33.52
2018-07-27T16:52:06.148Z,33.30
2018-07-27T16:54:40.486Z,33.34
2018-07-27T16:57:14.939Z,33.24
2018-07-27T16:59:49.410Z,33.24
2018-07-27T17:02:23.908Z,33.17
2018-07-27T17:04:58.395Z,33.21
2018-07-27T17:07:32.984Z,32.98
2018-07-27T17:10:07.405Z,33.01
2018-07-27T17:12:41.872Z,33.09
2018-07-27T17:15:16.435Z,33.07
2018-07-27T17:18:03.113Z,32.84
2018-07-27T17:23:36.908Z,32.70
2018-07-27T17:26:11.412Z,32.77
2018-07-27T17:28:45.889Z,32.83
2018-07-27T17:31:20.253Z,32.80
2018-07-27T17:33:54.589Z,32.73
2018-07-27T17:36:28.917Z,32.73
2018-07-27T17:39:03.449Z,32.70
2018-07-27T17:41:38.037Z,32.71
2018-07-27T17:44:19.445Z,32.65
2018-07-27T17:46:53.910Z,32.62
2018-07-27T17:49:28.291Z,32.58
2018-07-27T17:52:02.688Z,32.46
2018-07-27T17:54:37.113Z,32.40
2018-07-27T17:57:11.586Z,32.33
2018-07-27T17:59:45.960Z,32.25
2018-07-27T18:02:20.396Z,32.36
2018-07-27T18:04:54.897Z,32.18
2018-07-27T18:07:29.499Z,32.30
2018-07-27T18:10:03.769Z,32.27
2018-07-27T18:12:38.756Z,32.10
2018-07-27T18:15:13.248Z,32.10
2018-07-27T18:17:47.772Z,31.92
2018-07-27T18:20:22.219Z,31.94
2018-07-27T18:22:56.700Z,31.83
2018-07-27T18:25:31.115Z,31.65
2018-07-27T18:28:05.620Z,31.46
2018-07-27T18:30:42.133Z,31.51
2018-07-27T18:33:35.013Z,31.58
2018-07-27T18:39:28.203Z,31.72
2018-07-27T18:42:08.341Z,31.49
2018-07-27T18:47:42.396Z,31.20
2018-07-27T18:50:16.860Z,31.04
2018-07-27T18:52:51.498Z,30.71
2018-07-27T18:58:33.478Z,30.45
2018-07-27T19:04:24.209Z,30.15
2018-07-27T19:06:59.692Z,29.95
2018-07-27T19:12:33.479Z,29.59
2018-07-27T19:15:08.798Z,29.45
2018-07-27T19:17:43.305Z,29.38
2018-07-27T19:20:17.964Z,29.21
2018-07-27T19:22:52.474Z,29.08
2018-07-27T19:25:27.264Z,28.95
2018-07-27T19:28:01.749Z,28.81
2018-07-27T19:30:36.272Z,28.75
2018-07-27T19:33:34.913Z,28.59
2018-07-27T19:36:26.801Z,28.45
2018-07-27T19:39:01.210Z,28.30
2018-07-27T19:41:35.785Z,28.26
2018-07-27T19:44:10.487Z,28.18
2018-07-27T19:46:45.064Z,28.11
2018-07-27T19:49:19.656Z,28.00
2018-07-27T19:51:54.489Z,27.94
2018-07-27T19:54:29.075Z,27.95
2018-07-27T19:57:03.540Z,27.98
2018-07-27T19:59:38.269Z,27.92
2018-07-27T20:02:13.177Z,27.97
2018-07-27T20:04:47.700Z,27.89
2018-07-27T20:07:22.095Z,27.81
2018-07-27T20:09:56.490Z,27.64
2018-07-27T20:12:31.067Z,27.54
2018-07-27T20:15:06.260Z,27.50
2018-07-27T20:17:40.808Z,27.41
2018-07-27T20:20:15.327Z,27.40
2018-07-27T20:22:50.221Z,27.32
2018-07-27T20:25:24.898Z,27.33
2018-07-27T20:27:59.468Z,27.31
2018-07-27T20:30:34.319Z,27.14
2018-07-27T20:33:08.730Z,27.05
2018-07-27T20:35:43.461Z,26.99
2018-07-27T20:38:18.077Z,27.07
2018-07-27T20:40:52.764Z,26.93
2018-07-27T20:43:27.264Z,26.97
2018-07-27T20:46:01.646Z,27.05
2018-07-27T20:48:36.201Z,27.10
2018-07-27T20:51:10.685Z,27.05
2018-07-27T20:53:45.077Z,27.04
2018-07-27T20:56:19.644Z,27.11
2018-07-27T20:58:54.142Z,27.12
2018-07-27T21:01:28.624Z,27.04
2018-07-27T21:04:03.253Z,26.96
2018-07-27T21:06:37.768Z,26.73
2018-07-27T21:09:12.864Z,26.80
2018-07-27T21:11:47.222Z,26.86
2018-07-27T21:14:21.502Z,26.87
2018-07-27T21:16:55.908Z,26.87
2018-07-27T21:19:30.405Z,26.72
2018-07-27T21:22:05.118Z,26.64
2018-07-27T21:24:39.589Z,26.60
2018-07-27T21:27:14.160Z,26.74
2018-07-27T21:29:48.698Z,26.83
2018-07-27T21:32:23.152Z,27.04
2018-07-27T21:34:57.605Z,27.18
2018-07-27T21:37:32.021Z,27.16
2018-07-27T21:40:06.917Z,27.13
2018-07-27T21:42:41.430Z,27.15
2018-07-27T21:45:15.952Z,27.19
2018-07-27T21:47:50.513Z,27.05
2018-07-27T21:50:24.964Z,27.10
2018-07-27T21:52:59.392Z,27.09
2018-07-27T21:55:33.780Z,27.01
2018-07-27T21:58:08.151Z,26.91
2018-07-27T22:00:42.580Z,26.97
2018-07-27T22:03:16.986Z,27.09
2018-07-27T22:05:51.432Z,27.10
2018-07-27T22:08:26.115Z,27.04
2018-07-27T22:11:00.603Z,27.13
2018-07-27T22:13:34.944Z,27.14
2018-07-27T22:16:09.585Z,27.14
2018-07-27T22:18:44.219Z,27.19
2018-07-27T22:21:18.620Z,27.10
2018-07-27T22:23:53.041Z,26.96
2018-07-27T22:26:27.728Z,26.98
2018-07-27T22:29:02.534Z,26.95
2018-07-27T22:31:37.089Z,26.98
2018-07-27T22:34:11.573Z,26.97
2018-07-27T22:36:45.997Z,26.99
2018-07-27T22:39:20.420Z,26.94
2018-07-27T22:41:54.848Z,26.87
2018-07-27T22:44:29.318Z,26.78
2018-07-27T22:47:03.832Z,26.73
2018-07-27T22:49:38.313Z,26.80
2018-07-27T22:52:12.661Z,26.70
2018-07-27T22:54:47.144Z,26.73
2018-07-27T22:57:21.833Z,26.70
2018-07-27T22:59:56.408Z,26.61
2018-07-27T23:02:31.024Z,26.60
2018-07-27T23:05:06.329Z,26.48
2018-07-27T23:07:40.884Z,26.36
2018-07-27T23:10:15.499Z,26.37
2018-07-27T23:12:50.080Z,26.37
2018-07-27T23:15:24.652Z,26.40
2018-07-27T23:17:59.324Z,26.32
2018-07-27T23:20:33.909Z,26.18
2018-07-27T23:23:08.340Z,26.13
2018-07-27T23:25:42.897Z,26.09
2018-07-27T23:28:18.277Z,26.15
2018-07-27T23:30:52.582Z,26.12
2018-07-27T23:33:27.144Z,26.08
2018-07-27T23:36:01.645Z,26.14
2018-07-27T23:38:36.504Z,26.19
2018-07-27T23:41:11.088Z,26.05
2018-07-27T23:43:45.519Z,26.01
2018-07-27T23:46:19.871Z,26.01
2018-07-27T23:48:54.214Z,25.99
2018-07-27T23:51:28.612Z,26.09
2018-07-27T23:54:03.240Z,26.08
2018-07-27T23:56:37.821Z,26.00
2018-07-27T23:59:12.265Z,26.02
